sensor_id;sensor_type;location;lat;lon;timestamp;temperature;humidity
23471;DHT22;11908;50.806;4.424;2024-01-16T00:01:45;1.70;99.90
23471;DHT22;11908;50.806;4.424;2024-01-16T00:04:11;1.60;99.90
23471;DHT22;11908;50.806;4.424;2024-01-16T00:06:43;1.60;99.90
23471;DHT22;11908;50.806;4.424;2024-01-16T00:09:09;1.60;99.90
23471;DHT22;11908;50.806;4.424;2024-01-16T00:11:41;1.60;99.90
23471;DHT22;11908;50.806;4.424;2024-01-16T00:14:07;1.50;99.90
23471;DHT22;11908;50.806;4.424;2024-01-16T00:16:32;1.50;99.90
23471;DHT22;11908;50.806;4.424;2024-01-16T00:18:58;1.50;99.90
23471;DHT22;11908;50.806;4.424;2024-01-16T00:21:24;1.50;99.90
23471;DHT22;11908;50.806;4.424;2024-01-16T00:23:49;1.50;99.90
23471;DHT22;11908;50.806;4.424;2024-01-16T00:26:22;1.40;99.90
23471;DHT22;11908;50.806;4.424;2024-01-16T00:28:48;1.40;99.90
23471;DHT22;11908;50.806;4.424;2024-01-16T00:31:14;1.40;99.90
23471;DHT22;11908;50.806;4.424;2024-01-16T00:33:40;1.40;99.90
23471;DHT22;11908;50.806;4.424;2024-01-16T00:36:06;1.40;99.90
23471;DHT22;11908;50.806;4.424;2024-01-16T00:38:35;1.40;99.90
23471;DHT22;11908;50.806;4.424;2024-01-16T00:41:00;1.40;99.90
23471;DHT22;11908;50.806;4.424;2024-01-16T00:43:26;1.30;99.90
23471;DHT22;11908;50.806;4.424;2024-01-16T00:45:52;1.30;99.90
23471;DHT22;11908;50.806;4.424;2024-01-16T00:48:17;1.30;99.90
23471;DHT22;11908;50.806;4.424;2024-01-16T00:50:45;1.40;99.90
23471;DHT22;11908;50.806;4.424;2024-01-16T00:53:11;1.40;99.90
23471;DHT22;11908;50.806;4.424;2024-01-16T00:55:37;1.50;99.90
23471;DHT22;11908;50.806;4.424;2024-01-16T00:58:03;1.50;99.90
23471;DHT22;11908;50.806;4.424;2024-01-16T01:00:28;1.40;99.90
23471;DHT22;11908;50.806;4.424;2024-01-16T01:02:57;1.40;99.90
23471;DHT22;11908;50.806;4.424;2024-01-16T01:05:24;1.40;99.90
23471;DHT22;11908;50.806;4.424;2024-01-16T01:07:54;1.40;99.90
23471;DHT22;11908;50.806;4.424;2024-01-16T01:10:20;1.40;99.90
23471;DHT22;11908;50.806;4.424;2024-01-16T01:12:46;1.30;99.90
23471;DHT22;11908;50.806;4.424;2024-01-16T01:15:12;1.30;99.90
23471;DHT22;11908;50.806;4.424;2024-01-16T01:17:39;1.20;99.90
23471;DHT22;11908;50.806;4.424;2024-01-16T01:20:06;1.20;99.90
23471;DHT22;11908;50.806;4.424;2024-01-16T01:22:32;1.10;99.90
23471;DHT22;11908;50.806;4.424;2024-01-16T01:24:58;1.20;99.90
23471;DHT22;11908;50.806;4.424;2024-01-16T01:27:23;1.30;99.90
23471;DHT22;11908;50.806;4.424;2024-01-16T01:29:49;1.30;99.90
23471;DHT22;11908;50.806;4.424;2024-01-16T01:32:15;1.20;99.90
23471;DHT22;11908;50.806;4.424;2024-01-16T01:34:43;1.30;99.90
23471;DHT22;11908;50.806;4.424;2024-01-16T01:37:09;1.20;99.90
23471;DHT22;11908;50.806;4.424;2024-01-16T01:39:35;1.30;99.90
23471;DHT22;11908;50.806;4.424;2024-01-16T01:42:00;1.30;99.90
23471;DHT22;11908;50.806;4.424;2024-01-16T01:44:26;1.20;99.90
23471;DHT22;11908;50.806;4.424;2024-01-16T01:46:54;1.20;99.90
23471;DHT22;11908;50.806;4.424;2024-01-16T01:49:21;1.30;99.90
23471;DHT22;11908;50.806;4.424;2024-01-16T01:51:48;1.20;99.90
23471;DHT22;11908;50.806;4.424;2024-01-16T01:54:15;1.20;99.90
23471;DHT22;11908;50.806;4.424;2024-01-16T01:56:44;1.20;99.90
23471;DHT22;11908;50.806;4.424;2024-01-16T01:59:10;1.10;99.90
23471;DHT22;11908;50.806;4.424;2024-01-16T02:01:36;1.20;99.90
23471;DHT22;11908;50.806;4.424;2024-01-16T02:04:04;1.20;99.90
23471;DHT22;11908;50.806;4.424;2024-01-16T02:06:30;1.10;99.90
23471;DHT22;11908;50.806;4.424;2024-01-16T02:08:57;1.10;99.90
23471;DHT22;11908;50.806;4.424;2024-01-16T02:11:24;1.00;99.90
23471;DHT22;11908;50.806;4.424;2024-01-16T02:13:49;1.00;99.90
23471;DHT22;11908;50.806;4.424;2024-01-16T02:16:22;1.00;99.90
23471;DHT22;11908;50.806;4.424;2024-01-16T02:18:48;0.90;99.90
23471;DHT22;11908;50.806;4.424;2024-01-16T02:21:20;1.00;99.90
23471;DHT22;11908;50.806;4.424;2024-01-16T02:23:46;0.90;99.90
23471;DHT22;11908;50.806;4.424;2024-01-16T02:26:16;1.00;99.90
23471;DHT22;11908;50.806;4.424;2024-01-16T02:28:42;0.90;99.90
23471;DHT22;11908;50.806;4.424;2024-01-16T02:31:08;0.90;99.90
23471;DHT22;11908;50.806;4.424;2024-01-16T02:33:34;0.80;99.90
23471;DHT22;11908;50.806;4.424;2024-01-16T02:35:59;0.80;99.90
23471;DHT22;11908;50.806;4.424;2024-01-16T02:38:25;0.80;99.90
23471;DHT22;11908;50.806;4.424;2024-01-16T02:40:51;0.80;99.90
23471;DHT22;11908;50.806;4.424;2024-01-16T02:43:16;0.70;99.90
23471;DHT22;11908;50.806;4.424;2024-01-16T02:45:42;0.70;99.90
23471;DHT22;11908;50.806;4.424;2024-01-16T02:48:08;0.80;99.90
23471;DHT22;11908;50.806;4.424;2024-01-16T02:50:34;0.80;99.90
23471;DHT22;11908;50.806;4.424;2024-01-16T02:53:00;0.90;99.90
23471;DHT22;11908;50.806;4.424;2024-01-16T02:55:26;0.90;99.90
23471;DHT22;11908;50.806;4.424;2024-01-16T02:57:51;0.90;99.90
23471;DHT22;11908;50.806;4.424;2024-01-16T03:00:17;0.80;99.90
23471;DHT22;11908;50.806;4.424;2024-01-16T03:02:44;0.80;99.90
23471;DHT22;11908;50.806;4.424;2024-01-16T03:05:10;0.90;99.90
23471;DHT22;11908;50.806;4.424;2024-01-16T03:07:36;0.80;99.90
23471;DHT22;11908;50.806;4.424;2024-01-16T03:10:02;0.70;99.90
23471;DHT22;11908;50.806;4.424;2024-01-16T03:12:28;0.70;99.90
23471;DHT22;11908;50.806;4.424;2024-01-16T03:14:54;0.70;99.90
23471;DHT22;11908;50.806;4.424;2024-01-16T03:17:20;0.80;99.90
23471;DHT22;11908;50.806;4.424;2024-01-16T03:19:46;0.80;99.90
23471;DHT22;11908;50.806;4.424;2024-01-16T03:22:11;0.80;99.90
23471;DHT22;11908;50.806;4.424;2024-01-16T03:24:38;0.80;99.90
23471;DHT22;11908;50.806;4.424;2024-01-16T03:27:04;0.80;99.90
23471;DHT22;11908;50.806;4.424;2024-01-16T03:29:30;0.80;99.90
23471;DHT22;11908;50.806;4.424;2024-01-16T03:31:55;0.80;99.90
23471;DHT22;11908;50.806;4.424;2024-01-16T03:34:23;0.80;99.90
23471;DHT22;11908;50.806;4.424;2024-01-16T03:36:48;0.70;99.90
23471;DHT22;11908;50.806;4.424;2024-01-16T03:39:14;0.60;99.90
23471;DHT22;11908;50.806;4.424;2024-01-16T03:41:40;0.70;99.90
23471;DHT22;11908;50.806;4.424;2024-01-16T03:44:05;0.70;99.90
23471;DHT22;11908;50.806;4.424;2024-01-16T03:46:31;0.60;99.90
23471;DHT22;11908;50.806;4.424;2024-01-16T03:48:57;0.70;99.90
23471;DHT22;11908;50.806;4.424;2024-01-16T03:51:22;0.80;99.90
23471;DHT22;11908;50.806;4.424;2024-01-16T03:53:48;0.90;99.90
23471;DHT22;11908;50.806;4.424;2024-01-16T03:56:14;0.90;99.90
23471;DHT22;11908;50.806;4.424;2024-01-16T03:58:40;0.80;99.90
23471;DHT22;11908;50.806;4.424;2024-01-16T04:01:09;0.70;99.90
23471;DHT22;11908;50.806;4.424;2024-01-16T04:03:35;0.70;99.90
23471;DHT22;11908;50.806;4.424;2024-01-16T04:06:01;0.60;99.90
23471;DHT22;11908;50.806;4.424;2024-01-16T04:08:26;0.60;99.90
23471;DHT22;11908;50.806;4.424;2024-01-16T04:10:52;0.60;99.90
23471;DHT22;11908;50.806;4.424;2024-01-16T04:13:17;0.70;99.90
23471;DHT22;11908;50.806;4.424;2024-01-16T04:15:43;0.60;99.90
23471;DHT22;11908;50.806;4.424;2024-01-16T04:18:09;0.50;99.90
23471;DHT22;11908;50.806;4.424;2024-01-16T04:20:35;0.50;99.90
23471;DHT22;11908;50.806;4.424;2024-01-16T04:23:01;0.40;99.90
23471;DHT22;11908;50.806;4.424;2024-01-16T04:25:27;0.40;99.90
23471;DHT22;11908;50.806;4.424;2024-01-16T04:27:52;0.40;99.90
23471;DHT22;11908;50.806;4.424;2024-01-16T04:30:18;0.40;99.90
23471;DHT22;11908;50.806;4.424;2024-01-16T04:32:45;0.40;99.90
23471;DHT22;11908;50.806;4.424;2024-01-16T04:35:11;0.40;99.90
23471;DHT22;11908;50.806;4.424;2024-01-16T04:37:37;0.40;99.90
23471;DHT22;11908;50.806;4.424;2024-01-16T04:40:02;0.40;99.90
23471;DHT22;11908;50.806;4.424;2024-01-16T04:42:30;0.40;99.90
23471;DHT22;11908;50.806;4.424;2024-01-16T04:44:55;0.50;99.90
23471;DHT22;11908;50.806;4.424;2024-01-16T04:47:21;0.40;99.90
23471;DHT22;11908;50.806;4.424;2024-01-16T04:49:47;0.30;99.90
23471;DHT22;11908;50.806;4.424;2024-01-16T04:52:13;0.40;99.90
23471;DHT22;11908;50.806;4.424;2024-01-16T04:54:39;0.40;99.90
23471;DHT22;11908;50.806;4.424;2024-01-16T04:57:05;0.30;99.90
23471;DHT22;11908;50.806;4.424;2024-01-16T04:59:30;0.30;99.90
23471;DHT22;11908;50.806;4.424;2024-01-16T05:01:56;0.20;99.90
23471;DHT22;11908;50.806;4.424;2024-01-16T05:04:22;0.10;99.90
23471;DHT22;11908;50.806;4.424;2024-01-16T05:06:50;0.10;99.90
23471;DHT22;11908;50.806;4.424;2024-01-16T05:09:17;0.10;99.90
23471;DHT22;11908;50.806;4.424;2024-01-16T05:11:43;0.10;99.90
23471;DHT22;11908;50.806;4.424;2024-01-16T05:14:09;0.10;99.90
23471;DHT22;11908;50.806;4.424;2024-01-16T05:16:35;0.00;99.90
23471;DHT22;11908;50.806;4.424;2024-01-16T05:19:00;0.00;99.90
23471;DHT22;11908;50.806;4.424;2024-01-16T05:21:26;-0.10;99.90
23471;DHT22;11908;50.806;4.424;2024-01-16T05:23:52;0.00;99.90
23471;DHT22;11908;50.806;4.424;2024-01-16T05:26:17;-0.10;99.90
23471;DHT22;11908;50.806;4.424;2024-01-16T05:28:43;0.00;99.90
23471;DHT22;11908;50.806;4.424;2024-01-16T05:31:09;-0.10;99.90
23471;DHT22;11908;50.806;4.424;2024-01-16T05:33:34;-0.10;99.90
23471;DHT22;11908;50.806;4.424;2024-01-16T05:36:00;-0.10;99.90
23471;DHT22;11908;50.806;4.424;2024-01-16T05:38:26;-0.10;99.90
23471;DHT22;11908;50.806;4.424;2024-01-16T05:40:52;-0.20;99.90
23471;DHT22;11908;50.806;4.424;2024-01-16T05:43:17;-0.20;99.90
23471;DHT22;11908;50.806;4.424;2024-01-16T05:45:43;-0.20;99.90
23471;DHT22;11908;50.806;4.424;2024-01-16T05:48:09;-0.30;99.90
23471;DHT22;11908;50.806;4.424;2024-01-16T05:50:36;-0.30;99.90
23471;DHT22;11908;50.806;4.424;2024-01-16T05:53:02;-0.30;99.90
23471;DHT22;11908;50.806;4.424;2024-01-16T05:55:28;-0.20;99.90
23471;DHT22;11908;50.806;4.424;2024-01-16T05:57:57;-0.20;99.90
23471;DHT22;11908;50.806;4.424;2024-01-16T06:00:24;-0.20;99.90
23471;DHT22;11908;50.806;4.424;2024-01-16T06:02:50;-0.20;99.90
23471;DHT22;11908;50.806;4.424;2024-01-16T06:05:16;-0.20;99.90
23471;DHT22;11908;50.806;4.424;2024-01-16T06:07:42;-0.30;99.90
23471;DHT22;11908;50.806;4.424;2024-01-16T06:10:08;-0.20;99.90
23471;DHT22;11908;50.806;4.424;2024-01-16T06:12:34;-0.20;99.90
23471;DHT22;11908;50.806;4.424;2024-01-16T06:15:00;-0.10;99.90
23471;DHT22;11908;50.806;4.424;2024-01-16T06:17:26;-0.20;99.90
23471;DHT22;11908;50.806;4.424;2024-01-16T06:19:51;-0.20;99.90
23471;DHT22;11908;50.806;4.424;2024-01-16T06:22:17;-0.10;99.90
23471;DHT22;11908;50.806;4.424;2024-01-16T06:24:43;-0.10;99.90
23471;DHT22;11908;50.806;4.424;2024-01-16T06:27:08;-0.10;99.90
23471;DHT22;11908;50.806;4.424;2024-01-16T06:29:34;-0.10;99.90
23471;DHT22;11908;50.806;4.424;2024-01-16T06:32:00;-0.10;99.90
23471;DHT22;11908;50.806;4.424;2024-01-16T06:34:27;0.00;99.90
23471;DHT22;11908;50.806;4.424;2024-01-16T06:36:52;0.00;99.90
23471;DHT22;11908;50.806;4.424;2024-01-16T06:39:18;-0.10;99.90
23471;DHT22;11908;50.806;4.424;2024-01-16T06:41:44;-0.10;99.90
23471;DHT22;11908;50.806;4.424;2024-01-16T06:44:09;0.00;99.90
23471;DHT22;11908;50.806;4.424;2024-01-16T06:46:35;0.00;99.90
23471;DHT22;11908;50.806;4.424;2024-01-16T06:49:01;-0.10;99.90
23471;DHT22;11908;50.806;4.424;2024-01-16T06:51:27;-0.10;99.90
23471;DHT22;11908;50.806;4.424;2024-01-16T06:53:53;-0.10;99.90
23471;DHT22;11908;50.806;4.424;2024-01-16T06:56:18;-0.10;99.90
23471;DHT22;11908;50.806;4.424;2024-01-16T06:58:44;-0.10;99.90
23471;DHT22;11908;50.806;4.424;2024-01-16T07:01:10;-0.10;99.90
23471;DHT22;11908;50.806;4.424;2024-01-16T07:03:36;-0.10;99.90
23471;DHT22;11908;50.806;4.424;2024-01-16T07:06:02;-0.10;99.90
23471;DHT22;11908;50.806;4.424;2024-01-16T07:08:28;-0.20;99.90
23471;DHT22;11908;50.806;4.424;2024-01-16T07:10:53;-0.10;99.90
23471;DHT22;11908;50.806;4.424;2024-01-16T07:13:19;-0.20;99.90
23471;DHT22;11908;50.806;4.424;2024-01-16T07:15:45;-0.30;99.90
23471;DHT22;11908;50.806;4.424;2024-01-16T07:18:11;-0.20;99.90
23471;DHT22;11908;50.806;4.424;2024-01-16T07:20:36;-0.20;99.90
23471;DHT22;11908;50.806;4.424;2024-01-16T07:23:03;-0.20;99.90
23471;DHT22;11908;50.806;4.424;2024-01-16T07:25:29;-0.20;99.90
23471;DHT22;11908;50.806;4.424;2024-01-16T07:27:55;-0.20;99.90
23471;DHT22;11908;50.806;4.424;2024-01-16T07:30:20;-0.20;99.90
23471;DHT22;11908;50.806;4.424;2024-01-16T07:32:46;-0.10;99.90
23471;DHT22;11908;50.806;4.424;2024-01-16T07:35:12;-0.20;99.90
23471;DHT22;11908;50.806;4.424;2024-01-16T07:37:39;-0.30;99.90
23471;DHT22;11908;50.806;4.424;2024-01-16T07:40:05;-0.20;99.90
23471;DHT22;11908;50.806;4.424;2024-01-16T07:42:35;-0.20;99.90
23471;DHT22;11908;50.806;4.424;2024-01-16T07:45:04;-0.20;99.90
23471;DHT22;11908;50.806;4.424;2024-01-16T07:47:33;-0.20;99.90
23471;DHT22;11908;50.806;4.424;2024-01-16T07:50:02;-0.20;99.90
23471;DHT22;11908;50.806;4.424;2024-01-16T07:52:28;-0.20;99.90
23471;DHT22;11908;50.806;4.424;2024-01-16T07:54:54;-0.10;99.90
23471;DHT22;11908;50.806;4.424;2024-01-16T07:57:20;-0.10;99.90
23471;DHT22;11908;50.806;4.424;2024-01-16T07:59:46;-0.20;99.90
23471;DHT22;11908;50.806;4.424;2024-01-16T08:02:12;-0.20;99.90
23471;DHT22;11908;50.806;4.424;2024-01-16T08:04:37;-0.20;99.90
23471;DHT22;11908;50.806;4.424;2024-01-16T08:07:03;0.00;99.90
23471;DHT22;11908;50.806;4.424;2024-01-16T08:09:29;0.10;99.90
23471;DHT22;11908;50.806;4.424;2024-01-16T08:11:55;0.20;99.90
23471;DHT22;11908;50.806;4.424;2024-01-16T08:14:20;0.30;99.90
23471;DHT22;11908;50.806;4.424;2024-01-16T08:16:46;0.20;99.90
23471;DHT22;11908;50.806;4.424;2024-01-16T08:19:13;0.40;99.90
23471;DHT22;11908;50.806;4.424;2024-01-16T08:21:38;0.30;99.90
23471;DHT22;11908;50.806;4.424;2024-01-16T08:24:04;0.40;99.90
23471;DHT22;11908;50.806;4.424;2024-01-16T08:26:30;0.50;99.90
23471;DHT22;11908;50.806;4.424;2024-01-16T08:28:56;0.40;99.90
23471;DHT22;11908;50.806;4.424;2024-01-16T08:31:21;0.30;99.90
23471;DHT22;11908;50.806;4.424;2024-01-16T08:33:47;0.30;99.90
23471;DHT22;11908;50.806;4.424;2024-01-16T08:36:14;0.40;99.90
23471;DHT22;11908;50.806;4.424;2024-01-16T08:38:40;0.40;99.90
23471;DHT22;11908;50.806;4.424;2024-01-16T08:41:06;0.40;99.90
23471;DHT22;11908;50.806;4.424;2024-01-16T08:43:33;0.50;99.90
23471;DHT22;11908;50.806;4.424;2024-01-16T08:45:59;0.60;99.90
23471;DHT22;11908;50.806;4.424;2024-01-16T08:48:24;0.60;99.90
23471;DHT22;11908;50.806;4.424;2024-01-16T08:50:54;0.60;99.90
23471;DHT22;11908;50.806;4.424;2024-01-16T08:53:20;0.70;99.90
23471;DHT22;11908;50.806;4.424;2024-01-16T08:55:48;0.70;99.90
23471;DHT22;11908;50.806;4.424;2024-01-16T08:58:14;0.90;99.90
23471;DHT22;11908;50.806;4.424;2024-01-16T09:00:40;0.90;99.90
23471;DHT22;11908;50.806;4.424;2024-01-16T09:03:06;0.90;99.90
23471;DHT22;11908;50.806;4.424;2024-01-16T09:05:33;1.00;99.90
23471;DHT22;11908;50.806;4.424;2024-01-16T09:08:01;1.10;99.90
23471;DHT22;11908;50.806;4.424;2024-01-16T09:10:28;1.20;99.90
23471;DHT22;11908;50.806;4.424;2024-01-16T09:12:55;1.20;99.90
23471;DHT22;11908;50.806;4.424;2024-01-16T09:15:20;1.20;99.90
23471;DHT22;11908;50.806;4.424;2024-01-16T09:17:46;1.40;99.90
23471;DHT22;11908;50.806;4.424;2024-01-16T09:20:12;1.30;99.90
23471;DHT22;11908;50.806;4.424;2024-01-16T09:22:37;1.40;99.90
23471;DHT22;11908;50.806;4.424;2024-01-16T09:25:03;1.70;99.90
23471;DHT22;11908;50.806;4.424;2024-01-16T09:27:29;1.80;99.90
23471;DHT22;11908;50.806;4.424;2024-01-16T09:29:55;1.80;99.90
23471;DHT22;11908;50.806;4.424;2024-01-16T09:32:21;1.90;99.90
23471;DHT22;11908;50.806;4.424;2024-01-16T09:34:46;2.20;99.90
23471;DHT22;11908;50.806;4.424;2024-01-16T09:37:12;2.00;99.90
23471;DHT22;11908;50.806;4.424;2024-01-16T09:39:40;2.20;99.90
23471;DHT22;11908;50.806;4.424;2024-01-16T09:42:06;2.10;99.90
23471;DHT22;11908;50.806;4.424;2024-01-16T09:44:32;2.00;99.90
23471;DHT22;11908;50.806;4.424;2024-01-16T09:47:01;1.90;99.90
23471;DHT22;11908;50.806;4.424;2024-01-16T09:49:27;1.70;99.90
23471;DHT22;11908;50.806;4.424;2024-01-16T09:51:54;1.80;99.90
23471;DHT22;11908;50.806;4.424;2024-01-16T09:54:20;1.90;99.90
23471;DHT22;11908;50.806;4.424;2024-01-16T09:56:48;1.80;99.90
23471;DHT22;11908;50.806;4.424;2024-01-16T09:59:17;1.80;99.90
23471;DHT22;11908;50.806;4.424;2024-01-16T10:01:48;1.80;99.90
23471;DHT22;11908;50.806;4.424;2024-01-16T10:04:15;2.00;99.90
23471;DHT22;11908;50.806;4.424;2024-01-16T10:06:41;2.40;99.90
23471;DHT22;11908;50.806;4.424;2024-01-16T10:09:10;2.90;99.90
23471;DHT22;11908;50.806;4.424;2024-01-16T10:11:37;3.10;99.90
23471;DHT22;11908;50.806;4.424;2024-01-16T10:14:03;3.20;99.90
23471;DHT22;11908;50.806;4.424;2024-01-16T10:16:55;3.50;99.90
23471;DHT22;11908;50.806;4.424;2024-01-16T10:19:21;3.40;99.90
23471;DHT22;11908;50.806;4.424;2024-01-16T10:21:47;3.30;99.90
23471;DHT22;11908;50.806;4.424;2024-01-16T10:24:13;3.30;99.90
23471;DHT22;11908;50.806;4.424;2024-01-16T10:26:39;3.10;99.90
23471;DHT22;11908;50.806;4.424;2024-01-16T10:29:04;3.00;99.90
23471;DHT22;11908;50.806;4.424;2024-01-16T10:31:30;2.90;99.90
23471;DHT22;11908;50.806;4.424;2024-01-16T10:33:56;2.90;99.90
23471;DHT22;11908;50.806;4.424;2024-01-16T10:36:24;2.70;99.90
23471;DHT22;11908;50.806;4.424;2024-01-16T10:38:51;2.50;99.90
23471;DHT22;11908;50.806;4.424;2024-01-16T10:41:23;2.60;99.90
23471;DHT22;11908;50.806;4.424;2024-01-16T10:44:05;2.50;99.90
23471;DHT22;11908;50.806;4.424;2024-01-16T10:46:35;2.80;99.90
23471;DHT22;11908;50.806;4.424;2024-01-16T10:49:04;3.20;99.90
23471;DHT22;11908;50.806;4.424;2024-01-16T10:51:31;3.20;99.90
23471;DHT22;11908;50.806;4.424;2024-01-16T10:54:04;3.40;99.90
23471;DHT22;11908;50.806;4.424;2024-01-16T10:56:31;3.80;99.90
23471;DHT22;11908;50.806;4.424;2024-01-16T10:59:45;4.60;99.90
23471;DHT22;11908;50.806;4.424;2024-01-16T11:01:56;5.00;99.90
23471;DHT22;11908;50.806;4.424;2024-01-16T11:04:22;5.30;99.90
23471;DHT22;11908;50.806;4.424;2024-01-16T11:06:51;5.50;99.90
23471;DHT22;11908;50.806;4.424;2024-01-16T11:09:18;5.70;99.90
23471;DHT22;11908;50.806;4.424;2024-01-16T11:11:47;6.40;99.90
23471;DHT22;11908;50.806;4.424;2024-01-16T11:14:16;7.10;99.90
23471;DHT22;11908;50.806;4.424;2024-01-16T11:16:42;7.50;99.90
23471;DHT22;11908;50.806;4.424;2024-01-16T11:19:09;7.70;99.90
23471;DHT22;11908;50.806;4.424;2024-01-16T11:21:36;8.40;99.90
23471;DHT22;11908;50.806;4.424;2024-01-16T11:24:03;9.00;99.90
23471;DHT22;11908;50.806;4.424;2024-01-16T11:26:34;9.50;99.90
23471;DHT22;11908;50.806;4.424;2024-01-16T11:31:54;10.60;99.90
23471;DHT22;11908;50.806;4.424;2024-01-16T11:37:14;10.20;99.90
23471;DHT22;11908;50.806;4.424;2024-01-16T11:39:40;10.10;99.90
23471;DHT22;11908;50.806;4.424;2024-01-16T11:42:06;10.20;99.90
23471;DHT22;11908;50.806;4.424;2024-01-16T11:47:04;9.30;99.90
23471;DHT22;11908;50.806;4.424;2024-01-16T11:49:30;8.80;99.90
23471;DHT22;11908;50.806;4.424;2024-01-16T11:51:58;8.80;99.90
23471;DHT22;11908;50.806;4.424;2024-01-16T11:54:23;8.50;99.90
23471;DHT22;11908;50.806;4.424;2024-01-16T11:59:52;9.00;99.90
23471;DHT22;11908;50.806;4.424;2024-01-16T12:03:08;9.80;99.90
23471;DHT22;11908;50.806;4.424;2024-01-16T12:05:14;9.10;99.90
23471;DHT22;11908;50.806;4.424;2024-01-16T12:07:50;8.80;99.90
23471;DHT22;11908;50.806;4.424;2024-01-16T12:10:17;8.80;99.90
23471;DHT22;11908;50.806;4.424;2024-01-16T12:12:43;8.80;99.90
23471;DHT22;11908;50.806;4.424;2024-01-16T12:15:20;8.00;99.90
23471;DHT22;11908;50.806;4.424;2024-01-16T12:20:22;8.80;99.90
23471;DHT22;11908;50.806;4.424;2024-01-16T12:25:24;7.60;99.90
23471;DHT22;11908;50.806;4.424;2024-01-16T12:28:01;7.80;99.90
23471;DHT22;11908;50.806;4.424;2024-01-16T12:30:29;7.30;99.90
23471;DHT22;11908;50.806;4.424;2024-01-16T12:33:08;7.50;99.90
23471;DHT22;11908;50.806;4.424;2024-01-16T12:35:44;7.10;99.90
23471;DHT22;11908;50.806;4.424;2024-01-16T12:38:13;6.60;99.90
23471;DHT22;11908;50.806;4.424;2024-01-16T12:40:41;6.40;99.90
23471;DHT22;11908;50.806;4.424;2024-01-16T12:43:09;5.90;99.90
23471;DHT22;11908;50.806;4.424;2024-01-16T12:45:35;5.50;99.90
23471;DHT22;11908;50.806;4.424;2024-01-16T12:48:01;5.00;99.90
23471;DHT22;11908;50.806;4.424;2024-01-16T12:50:30;4.50;99.90
23471;DHT22;11908;50.806;4.424;2024-01-16T12:53:09;4.30;99.90
23471;DHT22;11908;50.806;4.424;2024-01-16T12:55:37;4.20;99.90
23471;DHT22;11908;50.806;4.424;2024-01-16T12:58:22;4.00;99.90
23471;DHT22;11908;50.806;4.424;2024-01-16T13:00:52;4.10;99.90
23471;DHT22;11908;50.806;4.424;2024-01-16T13:03:24;4.00;99.90
23471;DHT22;11908;50.806;4.424;2024-01-16T13:06:00;4.00;99.90
23471;DHT22;11908;50.806;4.424;2024-01-16T13:08:26;3.90;99.90
23471;DHT22;11908;50.806;4.424;2024-01-16T13:11:09;3.70;99.90
23471;DHT22;11908;50.806;4.424;2024-01-16T13:13:35;3.80;99.90
23471;DHT22;11908;50.806;4.424;2024-01-16T13:16:02;3.80;99.90
23471;DHT22;11908;50.806;4.424;2024-01-16T13:18:29;3.90;99.90
23471;DHT22;11908;50.806;4.424;2024-01-16T13:20:59;3.60;99.90
23471;DHT22;11908;50.806;4.424;2024-01-16T13:23:27;3.70;99.90
23471;DHT22;11908;50.806;4.424;2024-01-16T13:25:54;3.60;99.90
23471;DHT22;11908;50.806;4.424;2024-01-16T13:28:25;3.60;99.90
23471;DHT22;11908;50.806;4.424;2024-01-16T13:30:51;3.60;99.90
23471;DHT22;11908;50.806;4.424;2024-01-16T13:33:18;3.60;99.90
23471;DHT22;11908;50.806;4.424;2024-01-16T13:35:45;3.60;99.90
23471;DHT22;11908;50.806;4.424;2024-01-16T13:38:15;3.50;99.90
23471;DHT22;11908;50.806;4.424;2024-01-16T13:40:44;3.40;99.90
23471;DHT22;11908;50.806;4.424;2024-01-16T13:43:10;3.50;99.90
23471;DHT22;11908;50.806;4.424;2024-01-16T13:45:37;3.50;99.90
23471;DHT22;11908;50.806;4.424;2024-01-16T13:48:04;3.40;99.90
23471;DHT22;11908;50.806;4.424;2024-01-16T13:50:32;3.30;99.90
23471;DHT22;11908;50.806;4.424;2024-01-16T13:52:58;3.30;99.90
23471;DHT22;11908;50.806;4.424;2024-01-16T13:55:24;3.30;99.90
23471;DHT22;11908;50.806;4.424;2024-01-16T13:57:50;3.20;99.90
23471;DHT22;11908;50.806;4.424;2024-01-16T14:00:16;3.20;99.90
23471;DHT22;11908;50.806;4.424;2024-01-16T14:02:46;3.30;99.90
23471;DHT22;11908;50.806;4.424;2024-01-16T14:05:17;3.20;99.90
23471;DHT22;11908;50.806;4.424;2024-01-16T14:07:44;3.20;99.90
23471;DHT22;11908;50.806;4.424;2024-01-16T14:10:15;3.20;99.90
23471;DHT22;11908;50.806;4.424;2024-01-16T14:12:41;3.10;99.90
23471;DHT22;11908;50.806;4.424;2024-01-16T14:15:11;3.10;99.90
23471;DHT22;11908;50.806;4.424;2024-01-16T14:17:51;3.20;99.90
23471;DHT22;11908;50.806;4.424;2024-01-16T14:20:19;3.00;99.90
23471;DHT22;11908;50.806;4.424;2024-01-16T14:22:48;3.00;99.90
23471;DHT22;11908;50.806;4.424;2024-01-16T14:25:14;3.10;99.90
23471;DHT22;11908;50.806;4.424;2024-01-16T14:27:45;3.10;99.90
23471;DHT22;11908;50.806;4.424;2024-01-16T14:30:13;3.10;99.90
23471;DHT22;11908;50.806;4.424;2024-01-16T14:32:43;3.00;99.90
23471;DHT22;11908;50.806;4.424;2024-01-16T14:35:13;3.00;99.90
23471;DHT22;11908;50.806;4.424;2024-01-16T14:37:42;3.10;99.90
23471;DHT22;11908;50.806;4.424;2024-01-16T14:40:08;3.00;99.90
23471;DHT22;11908;50.806;4.424;2024-01-16T14:42:54;3.00;99.90
23471;DHT22;11908;50.806;4.424;2024-01-16T14:45:22;3.00;99.90
23471;DHT22;11908;50.806;4.424;2024-01-16T14:47:48;3.00;99.90
23471;DHT22;11908;50.806;4.424;2024-01-16T14:50:15;2.90;99.90
23471;DHT22;11908;50.806;4.424;2024-01-16T14:52:44;3.00;99.90
23471;DHT22;11908;50.806;4.424;2024-01-16T14:55:10;2.90;99.90
23471;DHT22;11908;50.806;4.424;2024-01-16T14:57:39;2.90;99.90
23471;DHT22;11908;50.806;4.424;2024-01-16T15:00:13;2.80;99.90
23471;DHT22;11908;50.806;4.424;2024-01-16T15:02:40;2.90;99.90
23471;DHT22;11908;50.806;4.424;2024-01-16T15:05:05;2.90;99.90
23471;DHT22;11908;50.806;4.424;2024-01-16T15:07:32;2.80;99.90
23471;DHT22;11908;50.806;4.424;2024-01-16T15:09:58;2.80;99.90
23471;DHT22;11908;50.806;4.424;2024-01-16T15:12:24;2.90;99.90
23471;DHT22;11908;50.806;4.424;2024-01-16T15:14:50;2.90;99.90
23471;DHT22;11908;50.806;4.424;2024-01-16T15:17:16;2.90;99.90
23471;DHT22;11908;50.806;4.424;2024-01-16T15:19:41;2.80;99.90
23471;DHT22;11908;50.806;4.424;2024-01-16T15:22:07;2.80;99.90
23471;DHT22;11908;50.806;4.424;2024-01-16T15:24:33;2.80;99.90
23471;DHT22;11908;50.806;4.424;2024-01-16T15:26:58;2.70;99.90
23471;DHT22;11908;50.806;4.424;2024-01-16T15:29:24;2.70;99.90
23471;DHT22;11908;50.806;4.424;2024-01-16T15:31:51;2.70;99.90
23471;DHT22;11908;50.806;4.424;2024-01-16T15:34:21;2.60;99.90
23471;DHT22;11908;50.806;4.424;2024-01-16T15:36:47;2.60;99.90
23471;DHT22;11908;50.806;4.424;2024-01-16T15:39:14;2.60;99.90
23471;DHT22;11908;50.806;4.424;2024-01-16T15:41:43;2.60;99.90
23471;DHT22;11908;50.806;4.424;2024-01-16T15:44:10;2.50;99.90
23471;DHT22;11908;50.806;4.424;2024-01-16T15:47:01;2.40;99.90
23471;DHT22;11908;50.806;4.424;2024-01-16T15:49:28;2.30;99.90
23471;DHT22;11908;50.806;4.424;2024-01-16T15:51:54;2.20;99.90
23471;DHT22;11908;50.806;4.424;2024-01-16T15:54:20;2.20;99.90
23471;DHT22;11908;50.806;4.424;2024-01-16T15:56:46;2.20;99.90
23471;DHT22;11908;50.806;4.424;2024-01-16T15:59:13;2.10;99.90